Time;durP1;ratioP1;P1;durP2;ratioP2;P2;SDS_P1;SDS_P2;PMS_P1;PMS_P2;Temp;Humidity;BMP_temperature;BMP_pressure;BME280_temperature;BME280_humidity;BME280_pressure;Samples;Min_cycle;Max_cycle;Signal;HPM_P1;HPM_P2
2022/05/23 00:02:21;;;;;;;10.18;6.78;;;;;;;12.22;81.55;97210.13;10273091;28;20061;-58
2022/05/23 00:07:28;;;;;;;11.18;7.10;;;;;;;12.23;80.84;97212.72;10286695;28;20061;-59
2022/05/23 00:12:27;;;;;;;10.82;6.55;;;;;;;12.08;81.60;97216.41;10255817;28;20062;-59
2022/05/23 00:17:26;;;;;;;10.30;7.28;;;;;;;11.95;82.45;97232.25;10252724;28;20068;-58
2022/05/23 00:22:25;;;;;;;15.93;7.32;;;;;;;11.85;81.95;97215.91;10259880;28;20038;-58
2022/05/23 00:27:24;;;;;;;9.98;7.35;;;;;;;11.81;82.00;97209.91;10289529;28;20069;-58
2022/05/23 00:37:41;;;;;;;10.93;7.30;;;;;;;11.69;82.62;97215.28;10294956;28;19962;-58
2022/05/23 00:47:58;;;;;;;11.63;7.57;;;;;;;11.62;82.47;97211.06;10295612;28;20069;-58
2022/05/23 00:52:57;;;;;;;11.70;8.38;;;;;;;11.58;82.49;97199.84;10294683;28;20026;-58
2022/05/23 00:58:06;;;;;;;14.20;8.82;;;;;;;11.43;84.08;97208.72;10295100;28;20080;-58
2022/05/23 01:03:10;;;;;;;12.05;7.07;;;;;;;11.43;83.78;97208.72;10294307;28;20065;-58
2022/05/23 01:08:09;;;;;;;12.82;7.47;;;;;;;11.43;83.75;97202.63;10294236;28;20080;-58
2022/05/23 01:13:08;;;;;;;10.85;7.30;;;;;;;11.42;84.04;97201.78;10294857;28;20096;-58
2022/05/23 01:18:07;;;;;;;13.75;7.43;;;;;;;11.33;83.95;97191.50;10295159;28;20045;-58
2022/05/23 01:23:12;;;;;;;13.50;7.80;;;;;;;11.31;83.85;97202.78;10294593;28;20053;-58
2022/05/23 01:28:12;;;;;;;14.25;7.85;;;;;;;11.29;84.00;97199.34;10294776;28;20076;-58
2022/05/23 01:33:12;;;;;;;13.38;8.02;;;;;;;11.29;84.25;97194.16;10296106;28;20073;-58
2022/05/23 01:38:11;;;;;;;12.27;7.85;;;;;;;11.25;83.39;97198.56;10299842;28;20058;-58
2022/05/23 01:43:11;;;;;;;12.20;7.47;;;;;;;11.08;84.94;97184.91;10299427;28;20026;-58
2022/05/23 01:48:10;;;;;;;10.20;7.95;;;;;;;11.10;85.26;97193.53;10298505;28;20104;-58
2022/05/23 01:53:09;;;;;;;11.45;8.25;;;;;;;11.05;85.10;97196.19;10298907;28;20037;-58
2022/05/23 01:58:09;;;;;;;12.80;8.35;;;;;;;11.02;84.77;97197.06;10297963;28;20065;-58
2022/05/23 02:03:08;;;;;;;12.23;8.18;;;;;;;10.97;85.34;97204.06;10297289;28;20066;-58
2022/05/23 02:08:07;;;;;;;14.45;9.20;;;;;;;10.90;85.41;97202.41;10296985;28;20026;-58
2022/05/23 02:13:06;;;;;;;12.13;8.55;;;;;;;10.89;85.13;97198.09;10297412;28;20069;-58
2022/05/23 02:18:05;;;;;;;13.20;8.27;;;;;;;10.89;85.37;97213.66;10297366;28;20057;-58
2022/05/23 02:23:04;;;;;;;;;;;;;;;10.90;85.50;97205.03;10298410;28;20068;-59
2022/05/23 02:28:03;;;;;;;11.25;7.45;;;;;;;10.91;85.38;97196.34;10297577;28;19916;-59
2022/05/23 02:33:03;;;;;;;13.38;8.82;;;;;;;10.92;85.34;97207.59;10295520;28;20069;-59
2022/05/23 02:38:02;;;;;;;14.25;8.57;;;;;;;10.81;85.36;97182.56;10336263;28;20501;-59
2022/05/23 02:43:01;;;;;;;14.60;9.07;;;;;;;10.94;85.55;97198.91;10306339;28;20482;-59
2022/05/23 02:48:00;;;;;;;18.08;9.30;;;;;;;10.86;86.30;97211.06;10296419;28;20135;-59
2022/05/23 02:52:59;;;;;;;13.35;8.45;;;;;;;10.77;86.47;97213.78;10296446;28;20022;-59
2022/05/23 02:57:58;;;;;;;15.88;8.88;;;;;;;10.75;86.82;97202.53;10296798;28;20092;-59
2022/05/23 03:03:03;;;;;;;14.55;8.38;;;;;;;10.82;86.51;97204.19;10294588;28;20046;-59
2022/05/23 03:08:03;;;;;;;15.57;7.93;;;;;;;10.90;85.63;97207.63;10296672;28;20509;-59
2022/05/23 03:13:02;;;;;;;11.35;7.50;;;;;;;10.96;85.66;97204.97;10295398;28;20532;-59
2022/05/23 03:18:02;;;;;;;11.23;7.40;;;;;;;11.09;84.89;97200.47;10294352;28;20065;-59
2022/05/23 03:28:20;;;;;;;11.38;6.78;;;;;;;11.32;84.49;97178.56;10296162;28;20069;-59
2022/05/23 03:33:21;;;;;;;13.45;7.20;;;;;;;11.42;83.99;97178.41;10294168;28;20042;-59
2022/05/23 03:38:21;;;;;;;11.93;7.45;;;;;;;11.45;83.70;97188.75;10300747;28;20076;-59
2022/05/23 03:43:20;;;;;;;14.05;7.63;;;;;;;11.51;83.87;97197.34;10298038;28;20065;-59
2022/05/23 03:48:19;;;;;;;14.00;7.82;;;;;;;11.55;83.44;97196.41;10297566;28;20034;-59
2022/05/23 03:53:19;;;;;;;19.67;8.43;;;;;;;11.73;82.98;97183.16;10296718;28;20133;-59
2022/05/23 03:58:18;;;;;;;11.60;7.75;;;;;;;11.86;83.01;97182.09;10297067;28;20069;-59
2022/05/23 04:03:18;;;;;;;13.85;7.90;;;;;;;12.04;82.97;97174.88;10294922;28;20030;-59
2022/05/23 04:08:17;;;;;;;12.63;8.82;;;;;;;12.22;82.72;97168.53;10297590;28;20478;-59
2022/05/23 04:13:16;;;;;;;13.55;8.68;;;;;;;12.13;81.66;97159.13;10296724;28;20505;-59
2022/05/23 04:18:15;;;;;;;14.02;8.27;;;;;;;12.13;81.69;97176.47;10296291;28;20152;-59
2022/05/23 04:23:15;;;;;;;11.57;7.97;;;;;;;11.95;81.65;97164.66;10297183;28;20065;-59
2022/05/23 04:28:15;;;;;;;13.60;7.93;;;;;;;11.73;81.78;97175.34;10276786;28;20079;-58
2022/05/23 04:38:32;;;;;;;14.95;7.35;;;;;;;11.91;82.70;97173.38;10332411;28;20086;-59
2022/05/23 04:43:31;;;;;;;10.63;8.02;;;;;;;12.18;82.72;97172.03;10307441;28;20018;-59
2022/05/23 04:53:53;;;;;;;12.85;8.95;;;;;;;12.84;81.62;97160.50;10290140;28;20564;-59
2022/05/23 04:58:52;;;;;;;10.35;8.40;;;;;;;12.92;80.64;97174.22;10289246;28;20084;-59
2022/05/23 05:03:57;;;;;;;11.43;8.80;;;;;;;12.99;80.36;97167.13;10285824;28;20759;-59
2022/05/23 05:08:56;;;;;;;12.95;9.02;;;;;;;13.24;80.29;97157.09;10288403;28;20053;-59
2022/05/23 05:13:55;;;;;;;12.60;8.13;;;;;;;13.42;79.71;97166.22;10289850;28;20025;-59
2022/05/23 05:18:54;;;;;;;12.55;8.73;;;;;;;13.56;79.96;97152.06;10289842;28;20478;-59
2022/05/23 05:23:53;;;;;;;11.93;8.25;;;;;;;13.62;79.12;97161.47;10304799;28;20120;-59
2022/05/23 05:28:53;;;;;;;13.95;7.45;;;;;;;13.91;78.49;97154.72;10285517;28;20065;-59
2022/05/23 05:34:08;;;;;;;;;;;;;;;14.24;77.14;97153.06;10293867;28;20096;-59
2022/05/23 05:39:08;;;;;;;11.57;8.18;;;;;;;14.45;75.92;97171.66;10290563;28;20015;-59
2022/05/23 05:44:13;;;;;;;12.57;7.97;;;;;;;14.52;75.86;97154.94;10274680;28;20063;-58
2022/05/23 05:49:17;;;;;;;13.85;8.73;;;;;;;14.69;75.55;97144.91;10269747;28;20049;-58
2022/05/23 05:54:21;;;;;;;11.93;9.25;;;;;;;14.82;75.49;97125.41;10287411;28;20501;-58
2022/05/23 05:59:21;;;;;;;15.77;9.95;;;;;;;15.19;74.22;97131.34;10288018;28;20049;-58
2022/05/23 06:04:20;;;;;;;14.90;9.65;;;;;;;15.37;73.91;97128.19;10277093;28;20069;-58
2022/05/23 06:14:37;;;;;;;16.85;10.05;;;;;;;15.86;71.92;97129.28;10290837;28;19972;-58
2022/05/23 06:19:45;;;;;;;18.08;10.50;;;;;;;16.06;71.07;97127.78;10295697;28;20057;-58
2022/05/23 06:24:49;;;;;;;15.25;11.05;;;;;;;16.29;70.04;97124.41;10284764;28;20122;-58
2022/05/23 06:29:48;;;;;;;18.00;10.80;;;;;;;16.60;70.38;97125.94;10296936;28;20068;-58
2022/05/23 06:34:46;;;;;;;;;;;;;;;16.92;68.21;97119.59;10308215;28;20056;-58
2022/05/23 06:39:45;;;;;;;12.80;8.53;;;;;;;17.26;68.33;97121.81;10301596;28;20010;-59
2022/05/23 06:44:44;;;;;;;17.17;10.02;;;;;;;17.62;67.68;97121.31;10296305;28;20589;-58
2022/05/23 06:49:43;;;;;;;15.25;7.65;;;;;;;17.96;65.12;97112.09;10288862;28;20848;-58
2022/05/23 06:54:42;;;;;;;;;;;;;;;18.22;57.07;97104.91;10295618;28;20105;-58
2022/05/23 06:59:41;;;;;;;11.53;4.97;;;;;;;18.64;56.57;97107.47;10296051;28;20000;-59
2022/05/23 07:15:15;;;;;;;6.50;4.05;;;;;;;19.44;48.88;97098.66;10294733;28;20565;-59
2022/05/23 07:20:14;;;;;;;6.53;3.03;;;;;;;19.45;47.34;97085.41;10301632;28;20053;-58
2022/05/23 07:25:13;;;;;;;6.05;2.90;;;;;;;19.70;46.75;97097.44;10291754;28;20053;-58
2022/05/23 07:30:12;;;;;;;5.32;2.50;;;;;;;19.85;45.92;97095.81;10291511;28;20060;-58
2022/05/23 07:35:11;;;;;;;3.70;2.40;;;;;;;20.08;46.14;97094.69;10309406;28;20053;-58
2022/05/23 07:40:12;;;;;;;4.50;2.35;;;;;;;20.09;43.91;97085.84;10295889;28;20073;-59
2022/05/23 07:45:12;;;;;;;2.90;2.22;;;;;;;20.25;42.31;97080.69;10287814;28;20057;-59
2022/05/23 07:50:12;;;;;;;5.70;2.10;;;;;;;20.36;40.68;97093.31;10287417;28;20070;-58
2022/05/23 08:00:32;;;;;;;3.03;2.08;;;;;;;20.83;39.77;97098.78;10290902;28;21363;-59
2022/05/23 08:05:31;;;;;;;3.67;1.90;;;;;;;20.74;37.11;97106.31;10288253;28;20076;-59
2022/05/23 08:10:30;;;;;;;3.72;2.00;;;;;;;21.00;37.20;97100.50;10291960;28;20065;-59
2022/05/23 08:15:29;;;;;;;5.50;2.63;;;;;;;21.11;37.57;97100.78;10290631;28;20036;-58
2022/05/23 08:20:28;;;;;;;3.10;1.67;;;;;;;21.34;37.82;97086.38;10292638;28;20046;-58
2022/05/23 08:25:27;;;;;;;2.72;1.70;;;;;;;21.45;37.85;97092.84;10292059;28;20068;-59
2022/05/23 08:30:27;;;;;;;2.22;1.58;;;;;;;21.38;36.19;97088.84;10291089;28;20038;-58
2022/05/23 08:35:27;;;;;;;4.82;1.90;;;;;;;21.52;35.86;97076.59;10296099;28;20073;-59
2022/05/23 08:41:06;;;;;;;2.35;1.90;;;;;;;21.59;36.25;97092.09;10295253;28;20730;-59
2022/05/23 08:46:07;;;;;;;3.08;1.80;;;;;;;21.45;34.90;97080.53;10285857;28;20046;-59
2022/05/23 08:51:28;;;;;;;2.45;1.90;;;;;;;21.62;34.95;97076.94;10295148;28;20082;-58
2022/05/23 08:56:34;;;;;;;4.03;1.60;;;;;;;21.52;34.36;97075.72;10292346;28;20058;-58
2022/05/23 09:01:54;;;;;;;2.53;1.50;;;;;;;21.67;34.05;97079.31;10290070;28;20053;-59
2022/05/23 09:06:53;;;;;;;2.88;1.58;;;;;;;22.00;34.42;97066.00;10307629;28;20053;-58
2022/05/23 09:12:01;;;;;;;3.15;1.60;;;;;;;22.18;34.15;97074.66;10286226;28;20083;-59
2022/05/23 09:17:00;;;;;;;1.77;1.67;;;;;;;22.11;33.01;97066.22;10279198;28;20068;-59
2022/05/23 09:22:18;;;;;;;3.72;1.40;;;;;;;22.14;31.78;97073.13;10291999;28;20061;-58
2022/05/23 09:27:23;;;;;;;1.92;1.58;;;;;;;22.12;31.72;97061.78;10287569;28;20058;-58
2022/05/23 09:32:35;;;;;;;4.13;2.08;;;;;;;22.34;33.30;97056.94;10284450;28;20069;-59
2022/05/23 09:37:35;;;;;;;2.38;1.67;;;;;;;22.65;32.68;97055.09;10287407;28;20065;-59
2022/05/23 09:47:57;;;;;;;1.85;1.52;;;;;;;23.04;32.26;97032.41;10285414;28;20442;-58
2022/05/23 09:52:57;;;;;;;2.47;1.40;;;;;;;23.23;32.37;97038.28;10284195;28;20060;-59
2022/05/23 09:58:00;;;;;;;1.80;1.52;;;;;;;23.40;31.08;97033.69;10298306;28;20069;-58
2022/05/23 10:03:00;;;;;;;3.13;1.70;;;;;;;23.48;31.84;97034.06;10304772;28;20196;-58
2022/05/23 10:08:03;;;;;;;2.53;1.58;;;;;;;23.70;31.36;97035.31;10297018;28;20045;-59
2022/05/23 10:13:14;;;;;;;4.60;1.73;;;;;;;23.18;30.42;97037.69;10283073;28;20056;-59
2022/05/23 10:18:24;;;;;;;3.30;1.65;;;;;;;23.07;31.76;97036.66;10288490;28;20058;-58
2022/05/23 10:23:30;;;;;;;3.22;1.60;;;;;;;23.09;30.80;97026.84;10287714;28;20061;-59
2022/05/23 10:28:31;;;;;;;2.97;1.50;;;;;;;23.34;31.35;97024.31;10296904;28;20068;-59
2022/05/23 10:33:32;;;;;;;5.63;1.70;;;;;;;23.16;31.58;97015.78;10297699;28;20084;-59
2022/05/23 10:44:08;;;;;;;4.60;1.83;;;;;;;23.54;30.64;97025.72;10280899;28;20504;-58
2022/05/23 10:49:24;;;;;;;3.43;1.43;;;;;;;23.82;29.97;96992.13;10287705;28;20069;-59
2022/05/23 10:54:46;;;;;;;3.08;1.92;;;;;;;24.10;30.47;96993.78;10296196;28;20074;-59
2022/05/23 11:00:04;;;;;;;14.27;1.88;;;;;;;24.18;29.40;96998.56;10291461;28;20077;-59
2022/05/23 11:05:18;;;;;;;2.08;1.58;;;;;;;24.43;28.61;96987.97;10282129;28;20057;-59
2022/05/23 11:10:25;;;;;;;5.57;1.80;;;;;;;24.46;29.21;96981.63;10295015;28;20061;-58
2022/05/23 11:16:00;;;;;;;3.67;2.08;;;;;;;24.37;28.08;96983.09;10295424;28;20058;-58
2022/05/23 11:21:05;;;;;;;2.55;1.40;;;;;;;24.20;27.88;96992.22;10294557;28;20073;-58
2022/05/23 11:26:24;;;;;;;6.40;1.77;;;;;;;24.31;27.56;96964.97;10294647;28;20042;-58
2022/05/23 11:37:08;;;;;;;1.73;1.33;;;;;;;24.32;28.01;96979.91;10286566;28;20061;-58
2022/05/23 11:42:53;;;;;;;1.90;1.42;;;;;;;24.24;27.09;96976.97;10296321;28;20072;-58
2022/05/23 11:47:58;;;;;;;2.78;1.65;;;;;;;24.19;26.95;96969.31;10291820;28;20057;-58
2022/05/23 11:53:10;;;;;;;11.60;2.10;;;;;;;24.34;27.11;96970.06;10275328;28;20058;-58
2022/05/23 11:58:25;;;;;;;1.50;1.40;;;;;;;24.37;27.25;96972.47;10292475;28;20061;-58
2022/05/23 12:03:24;;;;;;;4.13;1.48;;;;;;;24.43;26.52;96957.97;10286177;28;20050;-58
2022/05/23 12:08:31;;;;;;;4.00;1.65;;;;;;;24.66;26.72;96981.06;10287134;28;20037;-58
2022/05/23 12:13:33;;;;;;;3.78;1.75;;;;;;;24.66;27.39;96962.50;10292063;28;20066;-58
2022/05/23 12:18:38;;;;;;;2.10;1.27;;;;;;;24.81;26.11;96971.19;10293419;28;20049;-58
2022/05/23 12:23:45;;;;;;;2.65;1.58;;;;;;;24.75;26.79;96960.97;10296713;28;20635;-58
2022/05/23 12:28:53;;;;;;;2.47;1.30;;;;;;;24.74;25.98;96958.47;10294868;28;20400;-58
2022/05/23 12:34:08;;;;;;;1.90;1.70;;;;;;;24.55;27.29;96935.03;10287923;28;20517;-58
2022/05/23 12:39:18;;;;;;;2.22;1.58;;;;;;;24.83;27.20;96945.38;10286765;28;20585;-58
2022/05/23 12:44:54;;;;;;;4.25;1.70;;;;;;;24.98;27.37;96939.94;10293171;28;20077;-58
2022/05/23 12:49:58;;;;;;;3.20;1.80;;;;;;;25.08;28.14;96959.56;10292605;28;20103;-58
2022/05/23 12:55:18;;;;;;;3.85;1.60;;;;;;;25.11;27.37;96938.13;10285371;28;20113;-59
2022/05/23 13:00:27;;;;;;;1.70;1.60;;;;;;;25.12;27.21;96937.13;10291781;28;20081;-57
2022/05/23 13:05:31;;;;;;;;;;;;;;;24.97;27.31;96943.59;10291600;28;20049;-57
2022/05/23 13:10:37;;;;;;;1.73;1.63;;;;;;;25.15;27.67;96936.91;10293736;28;20348;-57
2022/05/23 13:15:36;;;;;;;3.85;1.73;;;;;;;24.96;28.12;96921.47;10291050;28;20057;-57
2022/05/23 13:25:53;;;;;;;2.35;1.88;;;;;;;24.81;28.18;96944.63;10294466;28;20054;-57
2022/05/23 13:30:56;;;;;;;2.58;2.10;;;;;;;24.78;27.37;96926.28;10299048;28;20050;-58
2022/05/23 13:36:04;;;;;;;1.70;1.60;;;;;;;24.95;28.37;96930.41;10287657;28;20125;-58
2022/05/23 13:41:05;;;;;;;4.32;2.03;;;;;;;24.94;28.19;96928.69;10291607;28;20061;-57
2022/05/23 13:46:23;;;;;;;2.63;1.60;;;;;;;24.95;27.88;96927.75;10296116;28;20089;-57
2022/05/23 13:51:39;;;;;;;5.07;1.90;;;;;;;25.32;28.90;96930.38;10291588;28;20060;-58
2022/05/23 13:56:54;;;;;;;2.88;1.67;;;;;;;25.32;28.25;96930.38;10297376;28;20165;-57
2022/05/23 14:02:00;;;;;;;54.08;9.18;;;;;;;25.44;28.62;96925.97;10286980;28;20057;-57
2022/05/23 14:07:03;;;;;;;5.85;1.90;;;;;;;25.36;28.30;96933.63;10290278;28;20057;-57
2022/05/23 14:12:05;;;;;;;1.90;1.58;;;;;;;25.38;28.29;96937.88;10297828;28;20057;-57
2022/05/23 14:17:26;;;;;;;4.13;2.00;;;;;;;25.40;28.49;96938.63;10297157;28;20049;-57
2022/05/23 14:22:30;;;;;;;2.75;2.00;;;;;;;25.37;28.94;96935.34;10297449;28;20053;-57
2022/05/23 14:27:34;;;;;;;4.35;1.85;;;;;;;25.13;28.67;96932.66;10297510;28;20866;-57
2022/05/23 14:32:33;;;;;;;4.25;2.10;;;;;;;25.02;28.57;96930.81;10282018;28;20073;-57
2022/05/23 14:37:33;;;;;;;2.00;1.63;;;;;;;24.77;28.64;96934.34;10295290;28;20029;-58
2022/05/23 14:42:37;;;;;;;4.68;1.88;;;;;;;24.77;28.71;96903.34;10297083;28;20464;-58
2022/05/23 14:47:37;;;;;;;3.88;2.20;;;;;;;25.19;29.91;96922.47;10298242;28;20453;-58
2022/05/23 14:52:45;;;;;;;2.75;1.83;;;;;;;25.20;29.36;96924.16;10281508;28;20050;-58
2022/05/23 15:03:21;;;;;;;3.30;2.03;;;;;;;25.02;29.59;96920.19;10297456;28;20057;-58
2022/05/23 15:08:22;;;;;;;2.58;2.03;;;;;;;24.93;29.87;96912.91;10296836;28;20556;-58
2022/05/23 15:13:22;;;;;;;3.88;2.08;;;;;;;24.81;30.53;96923.41;10299610;28;20069;-58
2022/05/23 15:18:21;;;;;;;4.80;2.05;;;;;;;24.46;29.97;96918.81;10299240;28;20096;-58
2022/05/23 15:23:20;;;;;;;3.00;2.00;;;;;;;24.37;30.43;96923.91;10295918;28;20113;-58
2022/05/23 15:28:19;;;;;;;3.47;2.45;;;;;;;24.35;30.68;96913.41;10298119;28;20064;-58
2022/05/23 15:33:18;;;;;;;3.20;1.80;;;;;;;24.40;30.40;96897.16;10294737;28;20050;-58
2022/05/23 15:38:17;;;;;;;3.25;2.00;;;;;;;24.20;30.57;96885.34;10293346;28;20137;-58
2022/05/23 15:43:17;;;;;;;2.20;2.00;;;;;;;24.16;30.78;96910.31;10255244;28;20505;-58
2022/05/23 15:48:19;;;;;;;4.22;2.15;;;;;;;24.13;31.59;96916.69;10292826;28;20054;-58
2022/05/23 15:53:19;;;;;;;3.33;1.83;;;;;;;24.08;31.47;96918.81;10291545;28;20099;-58
2022/05/23 15:58:19;;;;;;;2.17;1.70;;;;;;;23.99;31.00;96920.28;10292139;28;20069;-58
2022/05/23 16:03:18;;;;;;;3.70;2.38;;;;;;;23.92;31.49;96924.31;10290548;28;20069;-58
2022/05/23 16:08:19;;;;;;;3.08;2.10;;;;;;;23.81;31.33;96935.63;10292469;28;20065;-58
2022/05/23 16:13:18;;;;;;;5.50;2.92;;;;;;;23.80;32.22;96933.09;10288779;28;20073;-58
2022/05/23 16:18:17;;;;;;;4.43;3.35;;;;;;;23.72;32.10;96956.59;10292207;28;20070;-58
2022/05/23 16:23:16;;;;;;;5.78;2.10;;;;;;;23.53;32.91;96965.75;10292107;28;20045;-58
2022/05/23 16:28:15;;;;;;;3.35;2.00;;;;;;;23.26;33.04;96971.03;10292428;28;20136;-58
2022/05/23 16:38:32;;;;;;;4.47;2.10;;;;;;;23.09;33.40;96966.84;10291459;28;20058;-58
2022/05/23 16:43:31;;;;;;;4.32;2.20;;;;;;;23.15;33.49;96977.00;10290148;28;20076;-58
2022/05/23 16:48:30;;;;;;;4.32;2.05;;;;;;;23.01;33.59;96982.34;10292737;28;20058;-58
2022/05/23 16:53:29;;;;;;;2.38;1.98;;;;;;;22.81;33.60;96980.94;10265549;28;20061;-58
2022/05/23 16:58:29;;;;;;;4.78;2.40;;;;;;;22.68;34.02;96995.88;10254757;28;20061;-58
2022/05/23 17:03:28;;;;;;;2.80;2.15;;;;;;;22.57;33.97;96997.34;10291548;28;20065;-58
2022/05/23 17:08:27;;;;;;;2.90;1.83;;;;;;;22.37;33.85;97001.25;10286155;28;20033;-58
2022/05/23 17:13:26;;;;;;;3.13;2.10;;;;;;;22.38;34.03;97002.09;10292804;28;20331;-58
2022/05/23 17:18:26;;;;;;;4.57;1.70;;;;;;;22.28;33.70;96993.84;10296589;28;20074;-58
2022/05/23 17:23:25;;;;;;;2.90;2.00;;;;;;;22.38;33.83;97002.91;10289338;28;20057;-58
2022/05/23 17:28:24;;;;;;;2.38;2.03;;;;;;;22.33;34.11;97001.50;10307843;28;20068;-58
2022/05/23 17:33:24;;;;;;;3.22;1.77;;;;;;;22.31;34.97;97014.81;10308147;28;20065;-58
2022/05/23 17:38:25;;;;;;;2.67;1.95;;;;;;;22.11;36.08;97021.31;10287618;28;20505;-58
2022/05/23 17:43:23;;;;;;;5.78;2.75;;;;;;;21.84;37.39;97029.00;10290644;28;20493;-58
2022/05/23 17:48:23;;;;;;;5.43;3.30;;;;;;;21.51;38.29;97032.66;10291256;28;20061;-58
2022/05/23 17:53:21;;;;;;;5.28;3.08;;;;;;;21.24;39.64;97042.09;10266642;28;20076;-58
2022/05/23 17:58:21;;;;;;;8.13;3.78;;;;;;;20.89;40.37;97047.47;10273506;28;20040;-58
2022/05/23 18:03:20;;;;;;;10.43;5.55;;;;;;;20.61;41.31;97046.34;10280136;28;20552;-59
2022/05/23 18:08:19;;;;;;;11.57;4.72;;;;;;;20.28;42.17;97049.75;10287229;28;20457;-58
2022/05/23 18:13:18;;;;;;;7.68;3.25;;;;;;;19.97;42.50;97057.50;10276328;28;20095;-58
2022/05/23 18:23:35;;;;;;;4.82;2.88;;;;;;;19.48;43.73;97073.88;10281353;28;20490;-58
2022/05/23 18:28:34;;;;;;;5.22;3.08;;;;;;;19.24;44.04;97083.78;10290899;28;20061;-58
2022/05/23 18:33:33;;;;;;;9.57;3.60;;;;;;;19.02;44.46;97092.66;10297432;28;20121;-58
2022/05/23 18:38:35;;;;;;;7.03;3.78;;;;;;;18.82;45.08;97084.81;10296313;28;20129;-58
2022/05/23 18:43:34;;;;;;;8.18;3.28;;;;;;;18.67;45.51;97096.00;10297073;28;20053;-58
2022/05/23 18:53:51;;;;;;;5.88;4.13;;;;;;;18.24;46.65;97103.94;10293544;28;20053;-58
2022/05/23 18:58:50;;;;;;;5.88;3.17;;;;;;;18.02;47.28;97108.38;10296363;28;20037;-58
2022/05/23 19:03:51;;;;;;;;;;;;;;;17.83;47.66;97130.13;10297162;28;20069;-58
2022/05/23 19:08:50;;;;;;;9.32;2.80;;;;;;;17.67;47.76;97124.59;10296611;28;20369;-58
2022/05/23 19:13:53;;;;;;;3.70;2.70;;;;;;;17.59;47.67;97125.81;10296635;28;20061;-58
2022/05/23 19:18:53;;;;;;;4.57;2.72;;;;;;;17.50;47.93;97130.50;10295346;28;20065;-58
2022/05/23 19:23:52;;;;;;;7.60;2.65;;;;;;;17.38;47.92;97137.97;10293618;28;20081;-58
2022/05/23 19:28:57;;;;;;;4.97;2.50;;;;;;;17.33;47.93;97140.78;10282455;28;20064;-58
2022/05/23 19:33:56;;;;;;;4.32;2.50;;;;;;;17.21;48.14;97152.59;10289232;28;20871;-58
2022/05/23 19:38:55;;;;;;;;;;;;;;;17.05;49.17;97154.06;10293777;28;20566;-58
2022/05/23 19:43:53;;;;;;;4.38;2.30;;;;;;;16.98;49.27;97160.44;10278307;28;20352;-58
2022/05/23 19:48:52;;;;;;;;;;;;;;;16.84;50.11;97161.81;10285614;28;20141;-58
2022/05/23 19:53:51;;;;;;;3.42;2.40;;;;;;;16.71;49.90;97163.13;10289668;28;19921;-58
2022/05/23 19:58:50;;;;;;;;;;;;;;;16.60;50.75;97163.47;10297643;28;20042;-58
2022/05/23 20:09:07;;;;;;;4.68;2.17;;;;;;;16.36;51.00;97173.03;10297067;28;20065;-58
2022/05/23 20:14:06;;;;;;;;;;;;;;;16.33;50.92;97172.28;10297341;28;20034;-58
2022/05/23 20:19:07;;;;;;;4.35;2.58;;;;;;;16.31;51.46;97156.63;10292337;28;20320;-58
2022/05/23 20:24:06;;;;;;;4.63;2.60;;;;;;;16.26;52.05;97158.53;10294484;28;20069;-58
2022/05/23 20:29:06;;;;;;;6.15;2.50;;;;;;;16.13;52.21;97152.00;10294638;28;20069;-58
2022/05/23 20:34:05;;;;;;;5.35;3.13;;;;;;;16.03;52.94;97149.69;10291756;28;20080;-58
2022/05/23 20:39:03;;;;;;;;;;;;;;;15.90;53.91;97166.66;10291211;28;20141;-58
2022/05/23 20:44:02;;;;;;;9.27;5.03;;;;;;;15.85;54.67;97155.50;10288186;28;19919;-58
2022/05/23 20:49:03;;;;;;;8.63;5.00;;;;;;;15.68;56.63;97159.47;10287372;28;20497;-58
2022/05/23 20:54:04;;;;;;;10.77;5.22;;;;;;;15.64;56.99;97150.00;10285063;28;20668;-58
2022/05/23 20:59:03;;;;;;;9.60;4.60;;;;;;;15.51;57.69;97148.69;10291424;28;20073;-58
2022/05/23 21:04:02;;;;;;;;;;;;;;;15.62;57.13;97154.44;10291218;28;20124;-58
2022/05/23 21:09:00;;;;;;;8.52;3.88;;;;;;;15.72;57.23;97159.38;10292121;28;19909;-58
2022/05/23 21:13:59;;;;;;;6.75;3.70;;;;;;;15.76;58.36;97155.75;10291879;28;20121;-58
2022/05/23 21:18:58;;;;;;;6.90;3.30;;;;;;;15.67;58.92;97152.53;10290770;28;20148;-58
2022/05/23 21:23:57;;;;;;;;;;;;;;;15.59;59.34;97148.44;10291789;28;20507;-58
2022/05/23 21:28:56;;;;;;;6.18;3.13;;;;;;;15.53;59.47;97151.22;10289646;28;20333;-58
2022/05/23 21:33:55;;;;;;;;;;;;;;;15.43;60.20;97159.34;10291330;28;20081;-58
2022/05/23 21:38:54;;;;;;;8.50;4.20;;;;;;;15.27;60.90;97165.09;10291448;28;19945;-58
2022/05/23 21:49:10;;;;;;;4.50;3.05;;;;;;;14.83;60.18;97115.81;10295654;28;19959;-58
2022/05/23 21:54:10;;;;;;;5.22;3.40;;;;;;;15.13;60.32;97168.09;10285085;28;20033;-58
2022/05/23 21:59:09;;;;;;;4.55;3.10;;;;;;;15.17;60.49;97169.72;10297517;28;20081;-58
2022/05/23 22:04:10;;;;;;;6.18;3.28;;;;;;;15.04;61.76;97177.91;10297474;28;20058;-58
2022/05/23 22:09:10;;;;;;;6.65;3.40;;;;;;;15.11;62.12;97182.94;10298394;28;20085;-58
2022/05/23 22:14:10;;;;;;;8.02;3.80;;;;;;;15.13;62.47;97191.59;10296554;28;20078;-58
2022/05/23 22:19:12;;;;;;;9.75;3.50;;;;;;;15.13;62.59;97179.44;10296879;28;20084;-58
2022/05/23 22:24:12;;;;;;;7.72;3.50;;;;;;;15.10;63.22;97179.50;10296838;28;20077;-58
2022/05/23 22:29:11;;;;;;;8.25;4.10;;;;;;;15.09;62.76;97169.94;10296919;28;20061;-58
2022/05/23 22:34:10;;;;;;;;;;;;;;;15.27;62.63;97188.59;10298462;28;20180;-58
2022/05/23 22:39:09;;;;;;;5.07;2.97;;;;;;;15.33;61.92;97167.53;10297198;28;20288;-58
2022/05/23 22:44:08;;;;;;;7.63;3.95;;;;;;;15.41;61.78;97174.25;10296234;28;20104;-58
2022/05/23 22:49:07;;;;;;;4.82;3.45;;;;;;;15.37;61.39;97154.31;10294400;28;20037;-58
2022/05/23 22:54:06;;;;;;;7.45;4.55;;;;;;;15.50;61.40;97161.78;10295525;28;20057;-58
2022/05/23 22:59:05;;;;;;;8.35;4.63;;;;;;;15.35;62.06;97163.13;10295597;28;20037;-58
2022/05/23 23:04:22;;;;;;;7.97;5.00;;;;;;;15.27;62.60;97159.84;10297583;28;20487;-58
2022/05/23 23:09:21;;;;;;;6.07;4.07;;;;;;;15.15;62.64;97159.31;10295404;28;20053;-58
2022/05/23 23:14:20;;;;;;;;;;;;;;;15.18;62.08;97155.78;10296714;28;20049;-58
2022/05/23 23:19:19;;;;;;;5.90;3.40;;;;;;;15.23;62.11;97157.34;10293968;28;19917;-58
2022/05/23 23:24:18;;;;;;;6.60;4.57;;;;;;;15.32;61.77;97155.34;10294502;28;20115;-58
2022/05/23 23:29:17;;;;;;;5.55;3.70;;;;;;;15.36;61.47;97147.34;10297611;28;20084;-58
2022/05/23 23:39:34;;;;;;;7.65;3.72;;;;;;;15.38;61.53;97145.56;10294388;28;19975;-58
2022/05/23 23:44:33;;;;;;;;;;;;;;;15.46;61.52;97147.97;10295893;28;20037;-58
2022/05/23 23:49:32;;;;;;;9.95;4.50;;;;;;;15.34;62.69;97143.97;10292205;28;20035;-58
2022/05/23 23:54:31;;;;;;;7.57;3.90;;;;;;;15.30;63.49;97146.72;10261474;28;20065;-58
2022/05/23 23:59:30;;;;;;;;;;;;;;;15.22;64.51;97142.56;10254976;28;20034;-58
